createdAt,value
2022-11-01T00:02:19.267Z,99428.97
2022-11-01T00:04:46.920Z,99431.94
2022-11-01T00:07:14.411Z,99435.53
2022-11-01T00:09:41.932Z,99445.31
2022-11-01T00:12:09.458Z,99437.09
2022-11-01T00:14:37.086Z,99444.00
2022-11-01T00:17:05.253Z,99436.84
2022-11-01T00:19:32.679Z,99433.50
2022-11-01T00:22:00.236Z,99434.94
2022-11-01T00:24:27.822Z,99439.34
2022-11-01T00:26:56.646Z,99425.91
2022-11-01T00:29:24.884Z,99430.31
2022-11-01T00:34:40.448Z,99433.28
2022-11-01T00:37:12.268Z,99428.03
2022-11-01T00:39:40.399Z,99431.59
2022-11-01T00:42:07.839Z,99431.84
2022-11-01T00:44:35.390Z,99424.22
2022-11-01T00:47:04.204Z,99418.41
2022-11-01T00:49:31.750Z,99429.69
2022-11-01T00:51:59.266Z,99416.84
2022-11-01T00:54:27.085Z,99413.25
2022-11-01T00:56:54.951Z,99413.03
2022-11-01T00:59:22.481Z,99405.88
2022-11-01T01:01:50.141Z,99412.75
2022-11-01T01:04:18.074Z,99407.28
2022-11-01T01:06:45.853Z,99401.47
2022-11-01T01:09:13.519Z,99401.47
2022-11-01T01:11:41.686Z,99398.72
2022-11-01T01:14:09.672Z,99390.00
2022-11-01T01:16:37.679Z,99390.63
2022-11-01T01:19:05.835Z,99390.63
2022-11-01T01:21:36.677Z,99387.28
2022-11-01T01:24:04.236Z,99382.63
2022-11-01T01:26:31.767Z,99387.88
2022-11-01T01:29:00.717Z,99381.31
2022-11-01T01:31:28.636Z,99379.16
2022-11-01T01:33:58.156Z,99379.16
2022-11-01T01:36:25.673Z,99382.72
2022-11-01T01:38:53.861Z,99375.09
2022-11-01T01:41:40.697Z,99369.88
2022-11-01T01:44:51.856Z,99370.44
2022-11-01T01:47:40.857Z,99355.56
2022-11-01T01:50:20.870Z,99357.81
2022-11-01T01:52:58.867Z,99350.06
2022-11-01T01:55:46.565Z,99347.94
2022-11-01T01:58:18.474Z,99352.03
2022-11-01T02:00:46.288Z,99355.31
2022-11-01T02:03:15.009Z,99351.50
2022-11-01T02:05:55.279Z,99357.00
2022-11-01T02:08:29.818Z,99350.69
2022-11-01T02:11:08.614Z,99353.41
2022-11-01T02:13:36.577Z,99359.72
2022-11-01T02:16:06.728Z,99355.41
2022-11-01T02:19:04.315Z,99353.19
2022-11-01T02:21:53.929Z,99361.22
2022-11-01T02:24:54.919Z,99356.81
2022-11-01T02:28:04.952Z,99346.38
2022-11-01T02:30:57.474Z,99361.72
2022-11-01T02:33:47.757Z,99352.91
2022-11-01T02:36:55.318Z,99348.50
2022-11-01T02:39:32.911Z,99349.59
2022-11-01T02:42:21.699Z,99349.09
2022-11-01T02:45:09.335Z,99352.09
2022-11-01T02:47:39.855Z,99343.38
2022-11-01T02:50:12.517Z,99332.34
2022-11-01T02:52:42.890Z,99338.06
2022-11-01T02:55:30.971Z,99323.28
2022-11-01T02:58:21.303Z,99328.75
2022-11-01T03:00:49.485Z,99341.38
2022-11-01T03:03:31.282Z,99338.88
2022-11-01T03:06:01.793Z,99346.13
2022-11-01T03:08:52.540Z,99336.97
2022-11-01T03:11:26.935Z,99346.94
2022-11-01T03:14:18.599Z,99343.03
2022-11-01T03:17:56.938Z,99338.88
2022-11-01T03:20:49.550Z,99342.78
2022-11-01T03:23:26.699Z,99330.34
2022-11-01T03:25:58.625Z,99335.56
2022-11-01T03:28:41.362Z,99343.53
2022-11-01T03:31:17.078Z,99346.38
2022-11-01T03:33:54.064Z,99329.84
2022-11-01T03:36:28.254Z,99339.97
2022-11-01T03:39:00.752Z,99351.00
2022-11-01T03:41:34.074Z,99341.63
2022-11-01T03:44:03.046Z,99338.88
2022-11-01T03:46:30.786Z,99341.06
2022-11-01T03:49:00.098Z,99330.91
2022-11-01T03:51:28.680Z,99336.38
2022-11-01T03:53:57.597Z,99332.84
2022-11-01T03:56:25.189Z,99341.28
2022-11-01T03:58:52.761Z,99346.28
2022-11-01T04:01:21.037Z,99342.88
2022-11-01T04:06:39.001Z,99340.63
2022-11-01T04:09:06.884Z,99340.63
2022-11-01T04:11:35.472Z,99337.28
2022-11-01T04:14:21.812Z,99335.38
2022-11-01T04:17:09.638Z,99329.56
2022-11-01T04:19:56.215Z,99335.63
2022-11-01T04:22:26.914Z,99332.06
2022-11-01T04:24:54.402Z,99321.94
2022-11-01T04:30:24.897Z,99320.84
2022-11-01T04:32:53.359Z,99319.69
2022-11-01T04:40:51.416Z,99315.88
2022-11-01T04:46:04.343Z,99320.03
2022-11-01T04:48:32.544Z,99310.97
2022-11-01T04:51:02.671Z,99318.03
2022-11-01T04:53:30.589Z,99315.88
2022-11-01T04:55:58.648Z,99327.91
2022-11-01T04:58:28.683Z,99319.34
2022-11-01T05:00:56.866Z,99314.13
2022-11-01T05:03:24.596Z,99318.28
2022-11-01T05:05:52.226Z,99314.13
2022-11-01T05:08:19.740Z,99318.28
2022-11-01T05:10:47.552Z,99312.81
2022-11-01T05:13:14.951Z,99309.38
2022-11-01T05:15:59.254Z,99321.16
2022-11-01T05:18:33.304Z,99326.66
2022-11-01T05:21:00.953Z,99322.00
2022-11-01T05:23:28.424Z,99323.91
2022-11-01T05:25:56.939Z,99323.34
2022-11-01T05:28:24.758Z,99317.53
2022-11-01T05:30:52.207Z,99320.84
2022-11-01T05:33:19.709Z,99327.38
2022-11-01T05:35:47.228Z,99324.91
2022-11-01T05:38:14.675Z,99335.59
2022-11-01T05:40:42.207Z,99329.28
2022-11-01T05:43:09.714Z,99341.41
2022-11-01T05:45:37.513Z,99342.84
2022-11-01T05:48:05.757Z,99344.16
2022-11-01T05:50:35.943Z,99339.50
2022-11-01T05:53:10.547Z,99343.91
2022-11-01T05:55:39.522Z,99337.59
2022-11-01T05:58:07.141Z,99335.69
2022-11-01T06:00:35.799Z,99340.09
2022-11-01T06:03:03.762Z,99329.38
2022-11-01T06:05:32.353Z,99329.16
2022-11-01T06:08:02.721Z,99331.06
2022-11-01T06:10:30.848Z,99321.66
2022-11-01T06:12:59.806Z,99337.25
2022-11-01T06:15:27.598Z,99330.38
2022-11-01T06:17:59.509Z,99327.38
2022-11-01T06:21:30.078Z,99341.41
2022-11-01T06:23:57.970Z,99331.69
2022-11-01T06:26:25.980Z,99350.03
2022-11-01T06:28:53.417Z,99350.84
2022-11-01T06:31:22.360Z,99350.84
2022-11-01T06:33:50.695Z,99348.94
2022-11-01T06:36:18.366Z,99341.34
2022-11-01T06:38:46.301Z,99361.34
2022-11-01T06:41:16.162Z,99362.41
2022-11-01T06:43:43.634Z,99360.84
2022-11-01T06:46:11.738Z,99355.09
2022-11-01T06:48:39.681Z,99369.41
2022-11-01T06:51:07.442Z,99369.72
2022-11-01T06:53:34.988Z,99367.81
2022-11-01T06:56:03.158Z,99378.28
2022-11-01T06:58:30.709Z,99376.88
2022-11-01T07:00:58.489Z,99360.44
2022-11-01T07:03:26.037Z,99374.38
2022-11-01T07:05:53.774Z,99382.59
2022-11-01T07:08:21.500Z,99378.22
2022-11-01T07:10:52.020Z,99380.69
2022-11-01T07:13:22.747Z,99387.09
2022-11-01T07:15:50.152Z,99389.84
2022-11-01T07:18:17.806Z,99385.53
2022-11-01T07:23:17.050Z,99376.47
2022-11-01T07:25:45.267Z,99380.88
2022-11-01T07:28:13.269Z,99383.72
2022-11-01T07:30:41.714Z,99378.47
2022-11-01T07:33:09.342Z,99385.63
2022-11-01T07:35:37.039Z,99381.00
2022-11-01T07:38:07.998Z,99382.72
2022-11-01T07:40:44.763Z,99376.69
2022-11-01T07:43:12.176Z,99371.19
2022-11-01T07:45:39.696Z,99375.91
2022-11-01T07:48:12.075Z,99370.94
2022-11-01T07:50:41.866Z,99374.00
2022-11-01T07:53:14.916Z,99380.19
2022-11-01T07:55:42.888Z,99370.84
2022-11-01T07:58:11.970Z,99366.81
2022-11-01T08:00:43.665Z,99365.72
2022-11-01T08:03:16.776Z,99369.63
2022-11-01T08:14:45.755Z,99386.25
2022-11-01T08:21:30.301Z,99389.63
2022-11-01T08:26:30.624Z,99390.66
2022-11-01T08:31:56.790Z,99405.28
2022-11-01T08:34:24.512Z,99390.41
2022-11-01T08:39:42.516Z,99395.06
2022-11-01T09:28:37.529Z,99411.53
2022-11-01T09:31:21.442Z,99399.63
2022-11-01T09:39:49.295Z,99403.78
2022-11-01T09:42:37.264Z,99401.84
2022-11-01T09:51:27.143Z,99416.72
2022-11-01T09:54:19.984Z,99419.81
2022-11-01T10:37:30.538Z,99413.44
2022-11-01T10:40:09.288Z,99414.75
2022-11-01T10:42:37.861Z,99412.59
2022-11-01T10:45:10.832Z,99412.91
2022-11-01T10:47:39.189Z,99410.19
2022-11-01T10:50:19.074Z,99411.56
2022-11-01T10:52:52.569Z,99416.25
2022-11-01T10:55:33.091Z,99406.69
2022-11-01T10:58:07.488Z,99408.97
2022-11-01T11:00:41.776Z,99407.31
2022-11-01T11:03:24.268Z,99408.72
2022-11-01T11:05:53.375Z,99400.13
2022-11-01T11:08:24.807Z,99410.78
2022-11-01T11:10:53.923Z,99404.19
2022-11-01T11:13:24.362Z,99405.84
2022-11-01T11:16:05.144Z,99412.69
2022-11-01T11:18:38.677Z,99403.34
2022-11-01T11:21:13.517Z,99393.97
2022-11-01T11:23:46.611Z,99393.72
2022-11-01T11:26:18.261Z,99390.75
2022-11-01T11:28:53.487Z,99394.31
2022-11-01T11:31:36.476Z,99389.06
2022-11-01T11:34:23.447Z,99400.28
2022-11-01T11:36:53.816Z,99397.81
2022-11-01T11:39:29.661Z,99399.22
2022-11-01T11:42:19.285Z,99417.06
2022-11-01T11:44:55.859Z,99406.88
2022-11-01T11:47:29.210Z,99405.03
2022-11-01T11:50:00.218Z,99392.88
2022-11-01T11:52:38.106Z,99401.72
2022-11-01T11:55:27.872Z,99389.31
2022-11-01T11:57:57.184Z,99399.22
2022-11-01T12:00:29.827Z,99400.28
2022-11-01T12:02:57.533Z,99404.94
2022-11-01T12:05:26.872Z,99388.47
2022-11-01T12:07:57.050Z,99388.47
2022-11-01T12:10:36.940Z,99404.94
2022-11-01T12:13:26.887Z,99384.56
2022-11-01T12:16:20.458Z,99382.44
2022-11-01T12:19:00.334Z,99386.34
2022-11-01T12:21:45.057Z,99385.50
2022-11-01T12:24:25.156Z,99390.22
2022-11-01T12:27:04.199Z,99384.44
2022-11-01T12:29:41.374Z,99378.34
2022-11-01T12:32:20.177Z,99385.09
2022-11-01T12:34:51.133Z,99382.25
2022-11-01T12:37:50.497Z,99380.00
2022-11-01T12:40:41.236Z,99391.81
2022-11-01T12:43:52.722Z,99401.00
2022-11-01T12:46:40.023Z,99395.13
2022-11-01T12:49:23.592Z,99393.22
2022-11-01T12:51:56.917Z,99395.25
2022-11-01T12:54:41.308Z,99392.81
2022-11-01T12:57:18.482Z,99406.31
2022-11-01T12:59:48.160Z,99406.91
2022-11-01T13:02:46.515Z,99399.81
2022-11-01T13:05:23.621Z,99397.88
2022-11-01T13:08:21.575Z,99399.63
2022-11-01T13:10:49.936Z,99391.66
2022-11-01T13:13:22.821Z,99399.97
2022-11-01T13:16:09.117Z,99403.31
2022-11-01T13:19:14.317Z,99395.91
2022-11-01T13:22:23.164Z,99389.59
2022-11-01T13:25:14.899Z,99387.31
2022-11-01T13:28:07.929Z,99381.59
2022-11-01T13:30:43.695Z,99392.31
2022-11-01T13:33:44.281Z,99398.38
2022-11-01T13:36:48.426Z,99397.53
2022-11-01T13:39:42.368Z,99399.22
2022-11-01T13:51:47.863Z,99413.84
2022-11-01T13:57:09.513Z,99409.75
2022-11-01T13:59:42.900Z,99408.09
2022-11-01T14:02:29.335Z,99415.00
2022-11-01T14:05:05.059Z,99405.34
2022-11-01T14:07:51.472Z,99404.28
2022-11-01T14:10:25.602Z,99405.09
2022-11-01T14:16:15.748Z,99402.88
2022-11-01T14:19:05.080Z,99412.50
2022-11-01T14:21:45.144Z,99415.16
2022-11-01T14:24:34.888Z,99412.41
2022-11-01T14:27:34.093Z,99419.81
2022-11-01T14:30:07.669Z,99423.16
2022-11-01T14:32:36.342Z,99424.00
2022-11-01T14:35:21.876Z,99421.00
2022-11-01T14:37:54.336Z,99409.44
2022-11-01T14:40:39.099Z,99410.28
2022-11-01T14:43:36.404Z,99403.13
2022-11-01T14:46:11.953Z,99413.56
2022-11-01T14:49:25.031Z,99413.56
2022-11-01T14:52:12.314Z,99420.16
2022-11-01T14:55:21.049Z,99427.06
2022-11-01T14:57:49.971Z,99410.28
2022-11-01T15:00:31.361Z,99415.75
2022-11-01T15:03:09.797Z,99422.97
2022-11-01T15:28:18.533Z,99382.84
2022-11-01T16:16:16.554Z,99423.47
2022-11-01T16:18:46.692Z,99415.16
2022-11-01T16:30:32.016Z,99435.72
2022-11-01T17:55:07.400Z,99472.63
2022-11-01T18:21:43.938Z,99482.88
2022-11-01T18:27:41.487Z,99465.72
2022-11-01T18:30:15.394Z,99483.63
2022-11-01T18:32:58.904Z,99484.44
2022-11-01T18:35:34.100Z,99497.06
2022-11-01T18:44:36.911Z,99512.44
2022-11-01T18:47:23.783Z,99510.53
2022-11-01T18:49:59.062Z,99510.53
2022-11-01T18:52:29.448Z,99494.91
2022-11-01T18:57:44.481Z,99507.06
2022-11-01T19:00:27.184Z,99493.00
2022-11-01T19:03:00.723Z,99482.88
2022-11-01T19:05:32.982Z,99493.34
2022-11-01T19:08:11.027Z,99484.28
2022-11-01T19:10:43.249Z,99486.19
2022-11-01T19:16:42.860Z,99497.47
2022-11-01T19:19:20.671Z,99498.31
2022-11-01T19:22:04.928Z,99485.09
2022-11-01T19:24:40.955Z,99489.53
2022-11-01T19:27:26.124Z,99483.19
2022-11-01T19:29:57.917Z,99481.28
2022-11-01T19:32:27.135Z,99477.72
2022-11-01T19:35:00.243Z,99486.78
2022-11-01T19:40:49.462Z,99500.22
2022-11-01T19:43:39.146Z,99500.22
2022-11-01T19:46:17.147Z,99515.84
2022-11-01T19:48:45.938Z,99513.09
2022-11-01T19:51:26.859Z,99519.44
2022-11-01T19:53:56.860Z,99521.34
2022-11-01T19:56:30.129Z,99523.50
2022-11-01T19:59:01.073Z,99511.69
2022-11-01T20:01:44.853Z,99513.63
2022-11-01T20:04:31.463Z,99512.72
2022-11-01T20:07:16.276Z,99511.38
2022-11-01T20:12:44.757Z,99528.41
2022-11-01T20:17:57.750Z,99526.16
2022-11-01T20:20:30.584Z,99526.75
2022-11-01T20:23:24.503Z,99530.25
2022-11-01T20:25:49.971Z,99525.59
2022-11-01T20:28:34.454Z,99529.66
2022-11-01T20:31:04.190Z,99524.50
2022-11-01T20:42:04.636Z,99540.22
2022-11-01T20:44:43.522Z,99516.03
2022-11-01T20:49:59.292Z,99518.22
2022-11-01T20:52:40.429Z,99523.69
2022-11-01T20:55:24.232Z,99524.50
2022-11-01T21:01:30.255Z,99542.41
2022-11-01T21:09:47.534Z,99529.66
2022-11-01T21:12:50.305Z,99513.47
2022-11-01T21:15:40.164Z,99521.75
2022-11-01T21:18:34.092Z,99509.28
2022-11-01T21:21:18.612Z,99520.34
2022-11-01T21:23:49.146Z,99507.97
2022-11-01T21:26:26.783Z,99509.88
2022-11-01T21:33:02.175Z,99515.50
2022-11-01T21:50:03.788Z,99469.56
2022-11-01T21:52:34.738Z,99464.28
2022-11-01T21:55:02.767Z,99463.44
2022-11-01T21:57:30.300Z,99467.53
2022-11-01T21:59:57.884Z,99471.56
2022-11-01T22:02:28.773Z,99464.69
2022-11-01T22:04:56.707Z,99466.84
2022-11-01T22:07:24.248Z,99471.50
2022-11-01T22:09:51.826Z,99468.78
2022-11-01T22:12:21.920Z,99473.91
2022-11-01T22:14:49.919Z,99470.81
2022-11-01T22:17:18.025Z,99479.03
2022-11-01T22:19:45.770Z,99496.84
2022-11-01T22:22:13.292Z,99510.78
2022-11-01T22:24:41.588Z,99512.94
2022-11-01T22:27:09.055Z,99509.38
2022-11-01T22:29:36.745Z,99509.50
2022-11-01T22:32:04.729Z,99510.84
2022-11-01T22:34:32.357Z,99507.03
2022-11-01T22:52:32.717Z,99529.53
2022-11-01T22:55:25.067Z,99530.84
2022-11-01T22:58:03.980Z,99540.97
2022-11-01T23:00:44.018Z,99528.63
2022-11-01T23:03:33.637Z,99534.44
2022-11-01T23:09:26.225Z,99540.97
2022-11-01T23:14:51.700Z,99537.50
2022-11-01T23:17:34.956Z,99539.75
2022-11-01T23:20:32.185Z,99538.34
2022-11-01T23:23:11.445Z,99543.34
2022-11-01T23:25:45.874Z,99532.88
2022-11-01T23:28:24.409Z,99524.63
2022-11-01T23:30:57.996Z,99528.22
2022-11-01T23:33:37.307Z,99523.56
2022-11-01T23:36:12.403Z,99520.00
2022-11-01T23:38:54.184Z,99509.25
2022-11-01T23:41:48.009Z,99523.06
2022-11-01T23:44:37.211Z,99516.41
2022-11-01T23:47:38.672Z,99528.78
2022-11-01T23:50:34.807Z,99521.06
2022-11-01T23:53:20.655Z,99504.00
2022-11-01T23:55:53.162Z,99508.19
2022-11-01T23:58:30.747Z,99513.91
